createdAt,value
2018-08-19T00:00:43.748Z,21.20
2018-08-19T00:02:47.774Z,21.30
2018-08-19T00:05:06.084Z,21.40
2018-08-19T00:07:11.542Z,21.40
2018-08-19T00:09:16.850Z,21.40
2018-08-19T00:11:21.853Z,21.40
2018-08-19T00:13:25.942Z,21.40
2018-08-19T00:15:30.902Z,21.50
2018-08-19T00:17:35.565Z,21.50
2018-08-19T00:19:39.587Z,21.40
2018-08-19T00:21:43.737Z,21.40
2018-08-19T00:23:49.025Z,21.30
2018-08-19T00:25:57.082Z,21.30
2018-08-19T00:28:01.215Z,21.30
2018-08-19T00:30:08.044Z,21.20
2018-08-19T00:32:13.194Z,21.20
2018-08-19T00:34:21.901Z,21.20
2018-08-19T00:36:33.098Z,21.20
2018-08-19T00:38:37.079Z,21.00
2018-08-19T00:40:42.057Z,21.10
2018-08-19T00:42:47.348Z,20.90
2018-08-19T00:44:51.930Z,20.90
2018-08-19T00:46:56.932Z,20.90
2018-08-19T00:49:01.950Z,20.80
2018-08-19T00:51:05.897Z,20.90
2018-08-19T00:53:12.447Z,21.00
2018-08-19T00:55:17.622Z,21.10
2018-08-19T00:57:21.776Z,21.20
2018-08-19T00:59:29.026Z,21.10
2018-08-19T01:01:37.455Z,20.90
2018-08-19T01:03:53.339Z,20.90
2018-08-19T01:05:59.336Z,20.70
2018-08-19T01:08:05.126Z,20.90
2018-08-19T01:10:09.277Z,21.10
2018-08-19T01:12:14.023Z,21.30
2018-08-19T01:14:18.627Z,21.20
2018-08-19T01:16:22.956Z,21.20
2018-08-19T01:18:27.214Z,21.10
2018-08-19T01:20:32.091Z,21.10
2018-08-19T01:22:38.851Z,21.20
2018-08-19T01:24:43.442Z,21.10
2018-08-19T01:26:48.853Z,21.20
2018-08-19T01:28:56.681Z,21.20
2018-08-19T01:31:01.777Z,21.10
2018-08-19T01:33:05.908Z,21.20
2018-08-19T01:35:09.861Z,21.10
2018-08-19T01:37:15.811Z,21.10
2018-08-19T01:39:22.799Z,21.10
2018-08-19T01:41:27.309Z,21.00
2018-08-19T01:43:32.943Z,20.90
2018-08-19T01:45:37.030Z,20.90
2018-08-19T01:47:41.689Z,20.80
2018-08-19T01:49:47.414Z,20.80
2018-08-19T01:51:51.475Z,20.80
2018-08-19T01:53:55.828Z,20.80
2018-08-19T01:55:59.939Z,20.70
2018-08-19T01:58:04.253Z,20.70
2018-08-19T02:00:13.332Z,20.60
2018-08-19T02:02:18.673Z,20.60
2018-08-19T02:04:23.155Z,20.60
2018-08-19T02:06:29.480Z,20.60
2018-08-19T02:08:39.104Z,20.60
2018-08-19T02:10:43.130Z,20.50
2018-08-19T02:12:47.204Z,20.50
2018-08-19T02:14:51.595Z,20.40
2018-08-19T02:16:56.873Z,20.30
2018-08-19T02:19:01.012Z,20.20
2018-08-19T02:21:05.655Z,20.20
2018-08-19T02:23:11.139Z,20.20
2018-08-19T02:25:15.821Z,20.10
2018-08-19T02:27:19.844Z,20.10
2018-08-19T02:29:37.350Z,20.20
2018-08-19T02:31:42.749Z,20.20
2018-08-19T02:33:46.819Z,20.20
2018-08-19T02:35:55.170Z,20.20
2018-08-19T02:37:59.204Z,20.20
2018-08-19T02:40:05.374Z,20.20
2018-08-19T02:42:24.054Z,20.30
2018-08-19T02:44:28.652Z,20.30
2018-08-19T02:46:32.993Z,20.30
2018-08-19T02:48:45.902Z,20.30
2018-08-19T02:51:00.172Z,20.40
2018-08-19T02:53:06.396Z,20.40
2018-08-19T02:55:10.348Z,20.40
2018-08-19T02:57:14.872Z,20.30
2018-08-19T02:59:19.178Z,20.20
2018-08-19T03:01:23.099Z,20.20
2018-08-19T03:03:27.096Z,20.10
2018-08-19T03:05:33.074Z,20.10
2018-08-19T03:07:38.031Z,20.00
2018-08-19T03:09:42.171Z,20.00
2018-08-19T03:11:49.305Z,19.90
2018-08-19T03:13:53.324Z,19.90
2018-08-19T03:15:57.982Z,19.80
2018-08-19T03:18:05.901Z,19.80
2018-08-19T03:20:14.135Z,19.80
2018-08-19T03:22:18.368Z,19.80
2018-08-19T03:24:22.450Z,19.70
2018-08-19T03:26:30.544Z,19.70
2018-08-19T03:28:34.603Z,19.70
2018-08-19T03:30:40.804Z,19.70
2018-08-19T03:32:50.635Z,19.60
2018-08-19T03:35:34.243Z,19.50
2018-08-19T03:37:39.410Z,19.50
2018-08-19T03:39:45.733Z,19.50
2018-08-19T03:41:50.332Z,19.50
2018-08-19T03:43:58.660Z,19.40
2018-08-19T03:46:08.611Z,19.40
2018-08-19T03:48:12.674Z,19.40
2018-08-19T03:50:26.653Z,19.40
2018-08-19T03:52:30.703Z,19.40
2018-08-19T03:54:34.726Z,19.30
2018-08-19T03:56:39.859Z,19.40
2018-08-19T03:58:44.769Z,19.30
2018-08-19T04:00:49.877Z,19.30
2018-08-19T04:02:53.768Z,19.30
2018-08-19T04:04:58.644Z,19.30
2018-08-19T04:07:03.287Z,19.30
2018-08-19T04:09:08.387Z,19.20
2018-08-19T04:11:15.673Z,19.20
2018-08-19T04:13:43.537Z,19.10
2018-08-19T04:15:48.226Z,18.80
2018-08-19T04:17:54.008Z,18.70
2018-08-19T04:20:00.792Z,18.70
2018-08-19T04:22:06.969Z,18.80
2018-08-19T04:24:18.600Z,18.80
2018-08-19T04:26:23.037Z,19.00
2018-08-19T04:28:27.864Z,19.00
2018-08-19T04:30:32.869Z,19.10
2018-08-19T04:32:38.229Z,19.10
2018-08-19T04:34:47.811Z,19.10
2018-08-19T04:36:53.595Z,19.10
2018-08-19T04:38:58.884Z,19.10
2018-08-19T04:41:07.260Z,19.00
2018-08-19T04:43:15.244Z,19.10
2018-08-19T04:45:25.410Z,19.10
2018-08-19T04:50:03.232Z,19.10
2018-08-19T04:52:11.059Z,19.20
2018-08-19T04:54:15.808Z,19.10
2018-08-19T04:56:26.411Z,19.20
2018-08-19T04:58:33.643Z,19.30
2018-08-19T05:00:42.045Z,19.40
2018-08-19T05:02:49.304Z,19.60
2018-08-19T05:04:55.759Z,19.70
2018-08-19T05:07:04.747Z,19.80
2018-08-19T05:09:13.367Z,19.70
2018-08-19T05:11:18.473Z,19.80
2018-08-19T05:13:26.377Z,19.90
2018-08-19T05:15:35.416Z,20.10
2018-08-19T05:17:44.097Z,20.30
2018-08-19T05:19:52.139Z,20.50
2018-08-19T05:22:04.505Z,20.60
2018-08-19T05:24:12.916Z,20.80
2018-08-19T05:26:18.845Z,20.90
2018-08-19T05:28:26.212Z,21.10
2018-08-19T05:30:35.145Z,21.20
2018-08-19T05:32:49.401Z,21.30
2018-08-19T05:34:58.015Z,21.50
2018-08-19T05:37:04.936Z,21.70
2018-08-19T05:39:11.876Z,22.00
2018-08-19T05:41:18.617Z,22.10
2018-08-19T05:43:25.000Z,22.40
2018-08-19T05:45:32.644Z,22.40
2018-08-19T05:47:41.032Z,22.70
2018-08-19T05:49:51.860Z,22.90
2018-08-19T05:52:05.258Z,23.10
2018-08-19T05:54:11.579Z,23.30
2018-08-19T05:56:20.183Z,23.30
2018-08-19T05:58:27.140Z,23.50
2018-08-19T06:00:35.322Z,23.60
2018-08-19T06:02:45.599Z,23.50
2018-08-19T06:04:53.345Z,23.60
2018-08-19T06:07:06.102Z,23.60
2018-08-19T06:09:13.914Z,23.60
2018-08-19T06:11:21.416Z,23.90
2018-08-19T06:13:31.748Z,24.20
2018-08-19T06:15:38.156Z,24.40
2018-08-19T06:17:46.352Z,24.60
2018-08-19T06:19:54.237Z,24.80
2018-08-19T06:22:01.973Z,24.80
2018-08-19T06:24:09.500Z,25.10
2018-08-19T06:26:22.210Z,25.30
2018-08-19T06:28:29.309Z,25.50
2018-08-19T06:30:40.163Z,25.60
2018-08-19T06:32:53.346Z,25.60
2018-08-19T06:35:01.514Z,25.80
2018-08-19T06:37:09.875Z,25.90
2018-08-19T06:39:16.398Z,26.00
2018-08-19T06:41:23.226Z,26.20
2018-08-19T06:43:30.137Z,26.50
2018-08-19T06:45:37.476Z,26.80
2018-08-19T06:47:49.560Z,26.90
2018-08-19T06:50:00.271Z,27.00
2018-08-19T06:52:07.502Z,27.30
2018-08-19T06:54:18.047Z,27.60
2018-08-19T06:56:26.471Z,27.70
2018-08-19T06:58:33.599Z,27.90
2018-08-19T07:00:48.228Z,27.90
2018-08-19T07:02:59.224Z,27.90
2018-08-19T07:05:08.232Z,27.90
2018-08-19T07:07:19.390Z,28.00
2018-08-19T07:09:29.629Z,28.10
2018-08-19T07:11:37.236Z,28.20
2018-08-19T07:13:46.350Z,28.40
2018-08-19T07:15:55.407Z,28.50
2018-08-19T07:18:05.372Z,28.60
2018-08-19T07:20:20.575Z,28.80
2018-08-19T07:22:34.022Z,28.90
2018-08-19T07:24:42.693Z,29.00
2018-08-19T07:26:55.761Z,29.10
2018-08-19T07:29:07.737Z,29.30
2018-08-19T07:31:17.013Z,29.40
2018-08-19T07:33:32.508Z,29.70
2018-08-19T07:35:40.080Z,29.70
2018-08-19T07:37:47.168Z,29.70
2018-08-19T07:39:54.563Z,29.90
2018-08-19T07:42:01.699Z,29.90
2018-08-19T07:44:09.067Z,29.80
2018-08-19T07:46:22.279Z,29.30
2018-08-19T07:48:32.775Z,29.50
2018-08-19T07:50:40.756Z,29.80
2018-08-19T07:52:49.903Z,29.70
2018-08-19T07:54:58.669Z,29.80
2018-08-19T07:57:14.706Z,29.40
2018-08-19T07:59:21.629Z,29.50
2018-08-19T08:01:29.757Z,29.90
2018-08-19T08:03:39.490Z,30.20
2018-08-19T08:05:51.072Z,30.30
2018-08-19T08:07:59.100Z,30.40
2018-08-19T08:10:06.412Z,30.50
2018-08-19T08:12:26.640Z,30.60
2018-08-19T08:14:38.200Z,30.50
2018-08-19T08:16:55.994Z,30.10
2018-08-19T08:19:08.612Z,30.10
2018-08-19T08:21:17.546Z,30.40
2018-08-19T08:23:30.346Z,30.60
2018-08-19T08:25:40.751Z,30.80
2018-08-19T08:27:50.963Z,31.00
2018-08-19T08:30:01.244Z,31.00
2018-08-19T08:32:11.355Z,31.10
2018-08-19T08:34:18.945Z,31.10
2018-08-19T08:36:26.683Z,31.00
2018-08-19T08:38:34.002Z,31.00
2018-08-19T08:40:42.165Z,30.90
2018-08-19T08:42:50.497Z,30.70
2018-08-19T08:44:58.538Z,31.10
2018-08-19T08:47:15.401Z,31.30
2018-08-19T08:49:22.770Z,31.30
2018-08-19T08:51:30.085Z,31.10
2018-08-19T08:53:42.710Z,31.00
2018-08-19T08:55:49.616Z,31.30
2018-08-19T08:58:00.978Z,31.50
2018-08-19T09:00:24.537Z,31.60
2018-08-19T09:02:32.246Z,31.80
2018-08-19T09:04:38.547Z,32.00
2018-08-19T09:06:45.251Z,32.10
2018-08-19T09:08:52.665Z,32.30
2018-08-19T09:11:17.241Z,32.40
2018-08-19T09:13:28.253Z,32.50
2018-08-19T09:15:47.937Z,32.50
2018-08-19T09:18:04.879Z,32.60
2018-08-19T09:20:18.705Z,32.90
2018-08-19T09:22:26.148Z,32.90
2018-08-19T09:24:35.292Z,33.00
2018-08-19T09:27:11.381Z,33.10
2018-08-19T09:31:40.793Z,33.00
2018-08-19T09:36:30.722Z,33.10
2018-08-19T09:38:46.979Z,33.20
2018-08-19T09:41:04.908Z,33.40
2018-08-19T09:43:16.641Z,33.50
2018-08-19T09:45:35.478Z,33.50
2018-08-19T09:47:46.220Z,33.70
2018-08-19T09:49:57.790Z,33.50
2018-08-19T09:52:06.332Z,33.40
2018-08-19T09:54:21.442Z,33.30
2018-08-19T09:56:43.756Z,33.50
2018-08-19T09:58:59.626Z,33.70
2018-08-19T10:03:41.106Z,33.90
2018-08-19T10:06:01.369Z,34.10
2018-08-19T10:08:20.539Z,34.40
2018-08-19T10:10:32.463Z,34.50
2018-08-19T10:12:43.371Z,34.30
2018-08-19T10:14:56.713Z,34.20
2018-08-19T10:17:06.680Z,34.20
2018-08-19T10:19:14.976Z,34.10
2018-08-19T10:21:29.166Z,34.00
2018-08-19T10:23:41.489Z,33.80
2018-08-19T10:25:50.121Z,33.60
2018-08-19T10:27:58.791Z,33.60
2018-08-19T10:30:20.775Z,33.70
2018-08-19T10:32:30.223Z,33.80
2018-08-19T10:34:43.575Z,34.00
2018-08-19T10:36:55.766Z,34.00
2018-08-19T10:39:02.384Z,34.10
2018-08-19T10:41:11.062Z,34.40
2018-08-19T10:43:27.373Z,34.30
2018-08-19T10:46:03.413Z,34.40
2018-08-19T10:48:16.652Z,34.50
2018-08-19T10:50:39.738Z,34.50
2018-08-19T10:52:47.780Z,34.40
2018-08-19T10:54:56.247Z,34.30
2018-08-19T10:57:16.467Z,34.30
2018-08-19T10:59:30.959Z,34.40
2018-08-19T11:01:42.039Z,34.40
2018-08-19T11:04:26.618Z,34.40
2018-08-19T11:06:52.084Z,34.40
2018-08-19T11:09:14.834Z,34.30
2018-08-19T11:11:21.765Z,34.20
2018-08-19T11:13:31.395Z,34.30
2018-08-19T11:15:54.790Z,34.40
2018-08-19T11:18:24.410Z,34.60
2018-08-19T11:20:37.657Z,34.60
2018-08-19T11:22:48.413Z,34.70
2018-08-19T11:24:59.206Z,34.40
2018-08-19T11:27:07.856Z,34.40
2018-08-19T11:29:15.104Z,34.40
2018-08-19T11:31:29.436Z,34.40
2018-08-19T11:33:50.822Z,34.40
2018-08-19T11:35:58.563Z,34.60
2018-08-19T11:38:07.857Z,34.80
2018-08-19T11:40:20.261Z,35.20
2018-08-19T11:42:26.624Z,35.40
2018-08-19T11:44:37.309Z,35.40
2018-08-19T11:46:46.087Z,35.50
2018-08-19T11:49:02.076Z,35.40
2018-08-19T11:51:11.061Z,35.40
2018-08-19T11:53:18.880Z,35.30
2018-08-19T11:55:28.978Z,35.40
2018-08-19T11:57:35.607Z,35.50
2018-08-19T11:59:46.980Z,35.60
2018-08-19T12:01:54.191Z,35.70
2018-08-19T12:04:11.326Z,35.70
2018-08-19T12:06:19.098Z,35.50
2018-08-19T12:08:28.119Z,35.60
2018-08-19T12:10:35.170Z,35.50
2018-08-19T12:12:52.599Z,35.70
2018-08-19T12:17:23.374Z,35.80
2018-08-19T12:19:32.971Z,36.10
2018-08-19T12:21:45.430Z,36.10
2018-08-19T12:23:55.149Z,36.10
2018-08-19T12:26:08.519Z,35.90
2018-08-19T12:28:19.314Z,35.80
2018-08-19T12:30:25.474Z,35.70
2018-08-19T12:32:30.794Z,35.60
2018-08-19T12:34:39.313Z,35.60
2018-08-19T12:36:52.232Z,35.60
2018-08-19T12:39:05.607Z,35.80
2018-08-19T12:41:17.616Z,35.80
2018-08-19T12:43:26.317Z,35.80
2018-08-19T12:45:37.509Z,35.70
2018-08-19T12:47:44.383Z,35.70
2018-08-19T12:49:58.640Z,35.70
2018-08-19T12:52:08.928Z,35.70
2018-08-19T12:54:18.314Z,35.90
2018-08-19T12:56:28.019Z,35.90
2018-08-19T12:58:37.352Z,35.70
2018-08-19T13:00:48.232Z,35.30
2018-08-19T13:02:57.447Z,35.20
2018-08-19T13:05:05.422Z,35.20
2018-08-19T13:07:28.087Z,35.30
2018-08-19T13:09:34.222Z,35.50
2018-08-19T13:11:43.369Z,35.50
2018-08-19T13:13:49.892Z,35.50
2018-08-19T13:15:58.829Z,35.50
2018-08-19T13:18:07.174Z,35.50
2018-08-19T13:20:16.705Z,35.50
2018-08-19T13:22:33.435Z,35.40
2018-08-19T13:24:47.134Z,35.30
2018-08-19T13:26:56.945Z,35.40
2018-08-19T13:29:08.765Z,35.50
2018-08-19T13:31:19.918Z,35.20
2018-08-19T13:33:32.514Z,35.30
2018-08-19T13:35:38.854Z,35.20
2018-08-19T13:37:45.330Z,35.20
2018-08-19T13:39:54.244Z,35.50
2018-08-19T13:42:01.455Z,35.70
2018-08-19T13:44:08.587Z,36.00
2018-08-19T13:46:20.343Z,36.20
2018-08-19T13:48:27.019Z,36.60
2018-08-19T13:50:41.140Z,36.70
2018-08-19T13:52:53.671Z,36.70
2018-08-19T13:55:05.106Z,36.70
2018-08-19T13:57:14.904Z,36.70
2018-08-19T13:59:19.679Z,36.70
2018-08-19T14:01:25.232Z,36.70
2018-08-19T14:03:31.779Z,36.50
2018-08-19T14:05:38.789Z,36.60
2018-08-19T14:07:51.881Z,36.70
2018-08-19T14:10:02.353Z,36.80
2018-08-19T14:12:12.475Z,36.80
2018-08-19T14:14:22.991Z,36.90
2018-08-19T14:16:32.022Z,37.00
2018-08-19T14:18:43.114Z,36.90
2018-08-19T14:20:50.437Z,36.70
2018-08-19T14:22:59.782Z,36.70
2018-08-19T14:25:15.354Z,36.90
2018-08-19T14:27:25.398Z,37.20
2018-08-19T14:29:36.309Z,37.50
2018-08-19T14:31:51.184Z,37.70
2018-08-19T14:33:57.931Z,37.80
2018-08-19T14:36:13.985Z,37.80
2018-08-19T14:38:19.676Z,37.80
2018-08-19T14:40:26.073Z,38.00
2018-08-19T14:42:34.389Z,38.00
2018-08-19T14:44:39.056Z,38.10
2018-08-19T14:46:46.706Z,38.00
2018-08-19T14:49:02.518Z,37.80
2018-08-19T14:51:09.382Z,38.00
2018-08-19T14:53:14.353Z,38.20
2018-08-19T14:55:21.627Z,38.20
2018-08-19T14:57:30.072Z,38.00
2018-08-19T14:59:41.078Z,38.10
2018-08-19T15:01:48.420Z,38.20
2018-08-19T15:04:01.537Z,38.40
2018-08-19T15:06:11.998Z,38.80
2018-08-19T15:08:22.054Z,38.80
2018-08-19T15:10:27.713Z,38.90
2018-08-19T15:12:33.554Z,39.00
2018-08-19T15:14:40.685Z,39.10
2018-08-19T15:16:56.599Z,39.50
2018-08-19T15:19:08.559Z,39.70
2018-08-19T15:21:19.067Z,39.80
2018-08-19T15:23:24.904Z,39.40
2018-08-19T15:25:31.759Z,39.30
2018-08-19T15:27:41.160Z,39.40
2018-08-19T15:29:50.358Z,39.30
2018-08-19T15:31:59.201Z,39.10
2018-08-19T15:34:06.248Z,38.80
2018-08-19T15:36:14.033Z,38.60
2018-08-19T15:38:20.295Z,38.70
2018-08-19T15:40:41.450Z,39.10
2018-08-19T15:42:52.769Z,39.10
2018-08-19T15:45:00.487Z,39.50
2018-08-19T15:47:06.626Z,39.90
2018-08-19T15:49:13.370Z,40.00
2018-08-19T15:51:22.233Z,40.50
2018-08-19T15:55:53.896Z,40.40
2018-08-19T15:58:08.104Z,39.70
2018-08-19T16:00:21.960Z,39.60
2018-08-19T16:02:28.327Z,39.30
2018-08-19T16:04:40.108Z,39.00
2018-08-19T16:06:46.264Z,38.90
2018-08-19T16:08:51.391Z,39.00
2018-08-19T16:11:00.238Z,39.10
2018-08-19T16:13:10.744Z,39.00
2018-08-19T16:15:22.071Z,38.70
2018-08-19T16:17:29.237Z,38.80
2018-08-19T16:19:35.526Z,38.90
2018-08-19T16:21:42.790Z,38.90
2018-08-19T16:23:49.978Z,39.00
2018-08-19T16:25:59.085Z,39.20
2018-08-19T16:28:06.571Z,39.20
2018-08-19T16:30:16.844Z,39.10
2018-08-19T16:32:24.086Z,38.80
2018-08-19T16:34:33.680Z,38.60
2018-08-19T16:36:42.690Z,38.70
2018-08-19T16:38:49.505Z,38.90
2018-08-19T16:40:57.838Z,38.90
2018-08-19T16:43:04.190Z,38.80
2018-08-19T16:45:15.485Z,38.60
2018-08-19T16:47:22.205Z,38.40
2018-08-19T16:49:28.563Z,38.30
2018-08-19T16:51:35.721Z,38.30
2018-08-19T16:53:44.566Z,38.50
2018-08-19T16:55:53.614Z,38.60
2018-08-19T16:58:01.975Z,38.60
2018-08-19T17:00:09.323Z,38.40
2018-08-19T17:02:15.415Z,38.30
2018-08-19T17:04:22.397Z,38.30
2018-08-19T17:06:31.897Z,38.40
2018-08-19T17:08:39.279Z,38.60
2018-08-19T17:10:49.742Z,38.50
2018-08-19T17:12:57.524Z,38.40
2018-08-19T17:17:35.522Z,38.40
2018-08-19T17:21:56.754Z,37.80
2018-08-19T17:24:03.767Z,37.30
2018-08-19T17:26:17.587Z,37.20
2018-08-19T17:28:28.194Z,37.10
2018-08-19T17:30:38.215Z,37.00
2018-08-19T17:32:48.609Z,36.50
2018-08-19T17:34:58.967Z,36.00
2018-08-19T17:37:06.678Z,35.50
2018-08-19T17:39:22.324Z,35.00
2018-08-19T17:41:32.137Z,34.70
2018-08-19T17:43:43.296Z,34.20
2018-08-19T17:45:52.518Z,33.90
2018-08-19T17:47:58.292Z,33.70
2018-08-19T17:50:05.065Z,33.50
2018-08-19T17:52:15.089Z,33.30
2018-08-19T17:54:29.246Z,33.20
2018-08-19T17:56:34.492Z,33.00
2018-08-19T17:58:44.346Z,32.90
2018-08-19T18:00:52.564Z,32.80
2018-08-19T18:02:57.692Z,32.70
2018-08-19T18:05:04.693Z,32.60
2018-08-19T18:07:17.410Z,32.50
2018-08-19T18:09:26.966Z,32.20
2018-08-19T18:11:34.662Z,32.00
2018-08-19T18:13:41.273Z,31.70
2018-08-19T18:15:47.938Z,31.50
2018-08-19T18:18:01.144Z,31.50
2018-08-19T18:21:14.089Z,31.50
2018-08-19T18:23:26.178Z,31.50
2018-08-19T18:25:33.087Z,31.40
2018-08-19T18:27:43.189Z,31.20
2018-08-19T18:29:52.585Z,31.20
2018-08-19T18:32:01.959Z,31.10
2018-08-19T18:34:12.811Z,30.80
2018-08-19T18:36:21.982Z,30.70
2018-08-19T18:38:33.783Z,30.70
2018-08-19T18:40:41.782Z,30.60
2018-08-19T18:45:15.498Z,30.40
2018-08-19T18:47:22.307Z,30.30
2018-08-19T18:49:27.679Z,30.10
2018-08-19T18:51:33.574Z,30.10
2018-08-19T18:53:38.735Z,30.00
2018-08-19T18:55:51.079Z,29.90
2018-08-19T18:57:58.331Z,29.80
2018-08-19T19:00:03.413Z,29.70
2018-08-19T19:02:13.974Z,29.70
2018-08-19T19:04:23.377Z,29.60
2018-08-19T19:06:33.585Z,29.50
2018-08-19T19:08:40.142Z,29.30
2018-08-19T19:11:00.542Z,29.20
2018-08-19T19:13:22.391Z,29.20
2018-08-19T19:15:27.371Z,29.10
2018-08-19T19:17:39.582Z,29.10
2018-08-19T19:19:52.022Z,29.10
2018-08-19T19:22:01.509Z,29.00
2018-08-19T19:24:08.228Z,28.90
2018-08-19T19:26:12.769Z,28.70
2018-08-19T19:28:18.907Z,28.70
2018-08-19T19:30:28.356Z,28.60
2018-08-19T19:32:34.953Z,28.60
2018-08-19T19:34:43.062Z,28.50
2018-08-19T19:36:49.290Z,28.30
2018-08-19T19:39:01.836Z,28.20
2018-08-19T19:41:11.556Z,28.20
2018-08-19T19:43:21.100Z,28.10
2018-08-19T19:45:31.818Z,28.00
2018-08-19T19:47:38.110Z,28.00
2018-08-19T19:49:50.220Z,28.00
2018-08-19T19:51:57.424Z,28.00
2018-08-19T19:54:04.628Z,27.90
2018-08-19T19:56:13.983Z,27.90
2018-08-19T19:58:24.361Z,27.80
2018-08-19T20:00:36.870Z,27.70
2018-08-19T20:02:44.240Z,27.60
2018-08-19T20:04:52.517Z,27.60
2018-08-19T20:07:03.198Z,27.50
2018-08-19T20:09:11.392Z,27.40
2018-08-19T20:11:30.318Z,27.30
2018-08-19T20:13:35.246Z,27.20
2018-08-19T20:15:40.053Z,27.10
2018-08-19T20:17:45.723Z,27.10
2018-08-19T20:19:58.281Z,26.90
2018-08-19T20:22:03.314Z,26.90
2018-08-19T20:24:11.014Z,26.80
2018-08-19T20:26:15.338Z,26.70
2018-08-19T20:28:19.321Z,26.70
2018-08-19T20:30:26.249Z,26.70
2018-08-19T20:32:33.489Z,26.70
2018-08-19T20:34:45.047Z,26.70
2018-08-19T20:36:52.268Z,26.60
2018-08-19T20:39:08.590Z,26.60
2018-08-19T20:41:14.658Z,26.50
2018-08-19T20:43:20.800Z,26.50
2018-08-19T20:45:26.308Z,26.40
2018-08-19T20:47:32.796Z,26.30
2018-08-19T20:49:36.705Z,26.30
2018-08-19T20:51:42.254Z,26.30
2018-08-19T20:53:49.778Z,26.20
2018-08-19T20:55:55.285Z,26.30
2018-08-19T20:58:02.428Z,26.30
2018-08-19T21:00:11.710Z,26.20
2018-08-19T21:02:15.772Z,26.20
2018-08-19T21:04:21.923Z,26.20
2018-08-19T21:06:29.453Z,26.10
2018-08-19T21:08:33.313Z,26.00
2018-08-19T21:10:41.420Z,26.00
2018-08-19T21:12:45.700Z,25.90
2018-08-19T21:14:52.079Z,25.80
2018-08-19T21:17:02.474Z,25.70
2018-08-19T21:19:07.014Z,25.70
2018-08-19T21:21:10.880Z,25.70
2018-08-19T21:23:15.879Z,25.70
2018-08-19T21:25:27.551Z,25.70
2018-08-19T21:27:32.588Z,25.60
2018-08-19T21:29:39.447Z,25.60
2018-08-19T21:31:44.890Z,25.50
2018-08-19T21:33:50.627Z,25.50
2018-08-19T21:35:57.778Z,25.50
2018-08-19T21:38:05.310Z,25.50
2018-08-19T21:40:10.334Z,25.50
2018-08-19T21:42:14.995Z,25.50
2018-08-19T21:44:20.407Z,25.50
2018-08-19T21:46:25.026Z,25.50
2018-08-19T21:48:38.573Z,25.40
2018-08-19T21:50:46.296Z,25.40
2018-08-19T21:53:14.317Z,25.40
2018-08-19T21:55:19.285Z,25.40
2018-08-19T21:57:24.648Z,25.30
2018-08-19T21:59:30.275Z,25.30
2018-08-19T22:01:43.446Z,25.30
2018-08-19T22:03:51.495Z,25.30
2018-08-19T22:05:56.507Z,25.20
2018-08-19T22:08:02.620Z,25.20
2018-08-19T22:10:07.537Z,25.20
2018-08-19T22:12:15.923Z,25.10
2018-08-19T22:14:21.867Z,25.10
2018-08-19T22:16:26.559Z,25.10
2018-08-19T22:18:33.125Z,25.00
2018-08-19T22:20:40.529Z,25.00
2018-08-19T22:22:47.307Z,24.90
2018-08-19T22:24:51.770Z,24.80
2018-08-19T22:27:04.361Z,24.70
2018-08-19T22:29:26.395Z,24.80
2018-08-19T22:31:33.936Z,24.70
2018-08-19T22:33:40.291Z,24.70
2018-08-19T22:35:45.992Z,24.70
2018-08-19T22:37:54.072Z,24.70
2018-08-19T22:40:00.026Z,24.70
2018-08-19T22:42:05.722Z,24.60
2018-08-19T22:44:21.335Z,24.70
2018-08-19T22:46:32.532Z,24.60
2018-08-19T22:50:52.415Z,24.60
2018-08-19T22:52:56.251Z,24.50
2018-08-19T22:55:00.577Z,24.50
2018-08-19T22:57:07.819Z,24.50
2018-08-19T22:59:15.265Z,24.40
2018-08-19T23:01:24.310Z,24.40
2018-08-19T23:03:29.299Z,24.40
2018-08-19T23:05:34.908Z,24.30
2018-08-19T23:07:38.762Z,24.20
2018-08-19T23:09:48.060Z,24.30
2018-08-19T23:11:53.633Z,24.30
2018-08-19T23:14:13.673Z,24.20
2018-08-19T23:16:20.712Z,24.20
2018-08-19T23:18:29.441Z,24.10
2018-08-19T23:20:36.781Z,24.00
2018-08-19T23:22:42.091Z,24.10
2018-08-19T23:24:47.544Z,24.10
2018-08-19T23:27:09.129Z,24.10
2018-08-19T23:29:20.076Z,24.10
2018-08-19T23:31:26.140Z,24.00
2018-08-19T23:33:31.278Z,24.00
2018-08-19T23:35:36.766Z,24.00
2018-08-19T23:37:43.284Z,24.00
2018-08-19T23:39:47.924Z,23.90
2018-08-19T23:41:55.169Z,23.90
2018-08-19T23:44:02.252Z,24.00
2018-08-19T23:46:07.464Z,23.90
2018-08-19T23:48:12.471Z,23.90
2018-08-19T23:50:16.990Z,23.80
2018-08-19T23:52:22.062Z,23.70
2018-08-19T23:54:26.469Z,23.70
2018-08-19T23:56:31.867Z,23.60
2018-08-19T23:58:35.729Z,23.70
